sensor_id;sensor_type;location;lat;lon;timestamp;temperature;humidity
8684;DHT22;4379;59.744;18.206;2023-08-24T00:00:52;13.00;99.90
8684;DHT22;4379;59.744;18.206;2023-08-24T00:03:19;12.90;99.90
8684;DHT22;4379;59.744;18.206;2023-08-24T00:05:48;13.00;99.90
8684;DHT22;4379;59.744;18.206;2023-08-24T00:08:16;13.00;99.90
8684;DHT22;4379;59.744;18.206;2023-08-24T00:10:44;13.10;99.90
8684;DHT22;4379;59.744;18.206;2023-08-24T00:13:14;13.10;99.90
8684;DHT22;4379;59.744;18.206;2023-08-24T00:15:42;13.10;99.90
8684;DHT22;4379;59.744;18.206;2023-08-24T00:18:10;13.00;99.90
8684;DHT22;4379;59.744;18.206;2023-08-24T00:20:37;13.00;99.90
8684;DHT22;4379;59.744;18.206;2023-08-24T00:23:05;12.90;99.90
8684;DHT22;4379;59.744;18.206;2023-08-24T00:25:32;12.90;99.90
8684;DHT22;4379;59.744;18.206;2023-08-24T00:27:59;12.80;99.90
8684;DHT22;4379;59.744;18.206;2023-08-24T00:30:27;12.70;99.90
8684;DHT22;4379;59.744;18.206;2023-08-24T00:32:55;12.70;99.90
8684;DHT22;4379;59.744;18.206;2023-08-24T00:35:22;12.70;99.90
8684;DHT22;4379;59.744;18.206;2023-08-24T00:37:50;12.60;99.90
8684;DHT22;4379;59.744;18.206;2023-08-24T00:40:20;12.60;99.90
8684;DHT22;4379;59.744;18.206;2023-08-24T00:42:48;12.60;99.90
8684;DHT22;4379;59.744;18.206;2023-08-24T00:45:15;12.60;99.90
8684;DHT22;4379;59.744;18.206;2023-08-24T00:47:45;12.60;99.90
8684;DHT22;4379;59.744;18.206;2023-08-24T00:50:14;12.60;99.90
8684;DHT22;4379;59.744;18.206;2023-08-24T00:52:46;12.70;99.90
8684;DHT22;4379;59.744;18.206;2023-08-24T00:55:14;12.60;99.90
8684;DHT22;4379;59.744;18.206;2023-08-24T00:57:43;12.70;99.90
8684;DHT22;4379;59.744;18.206;2023-08-24T01:00:12;12.70;99.90
8684;DHT22;4379;59.744;18.206;2023-08-24T01:02:44;12.70;99.90
8684;DHT22;4379;59.744;18.206;2023-08-24T01:05:12;12.80;99.90
8684;DHT22;4379;59.744;18.206;2023-08-24T01:07:40;12.80;99.90
8684;DHT22;4379;59.744;18.206;2023-08-24T01:10:09;12.80;99.90
8684;DHT22;4379;59.744;18.206;2023-08-24T01:18:06;12.90;99.90
8684;DHT22;4379;59.744;18.206;2023-08-24T01:20:35;13.00;99.90
8684;DHT22;4379;59.744;18.206;2023-08-24T01:25:52;13.00;99.90
8684;DHT22;4379;59.744;18.206;2023-08-24T01:28:21;13.00;99.90
8684;DHT22;4379;59.744;18.206;2023-08-24T01:30:49;13.10;99.90
8684;DHT22;4379;59.744;18.206;2023-08-24T01:33:17;13.10;99.90
8684;DHT22;4379;59.744;18.206;2023-08-24T01:35:44;13.20;99.90
8684;DHT22;4379;59.744;18.206;2023-08-24T01:38:12;13.20;99.90
8684;DHT22;4379;59.744;18.206;2023-08-24T01:40:48;13.20;99.90
8684;DHT22;4379;59.744;18.206;2023-08-24T01:43:21;13.20;99.90
8684;DHT22;4379;59.744;18.206;2023-08-24T01:46:08;13.30;99.90
8684;DHT22;4379;59.744;18.206;2023-08-24T01:48:36;13.30;99.90
8684;DHT22;4379;59.744;18.206;2023-08-24T01:51:04;13.30;99.90
8684;DHT22;4379;59.744;18.206;2023-08-24T01:53:33;13.30;99.90
8684;DHT22;4379;59.744;18.206;2023-08-24T01:56:00;13.30;99.90
8684;DHT22;4379;59.744;18.206;2023-08-24T01:58:28;13.30;99.90
8684;DHT22;4379;59.744;18.206;2023-08-24T02:00:56;13.40;99.90
8684;DHT22;4379;59.744;18.206;2023-08-24T02:03:23;13.40;99.90
8684;DHT22;4379;59.744;18.206;2023-08-24T02:05:50;13.40;99.90
8684;DHT22;4379;59.744;18.206;2023-08-24T02:08:18;13.40;99.90
8684;DHT22;4379;59.744;18.206;2023-08-24T02:10:46;13.40;99.90
8684;DHT22;4379;59.744;18.206;2023-08-24T02:13:13;13.40;99.90
8684;DHT22;4379;59.744;18.206;2023-08-24T02:15:41;13.40;99.90
8684;DHT22;4379;59.744;18.206;2023-08-24T02:18:08;13.50;99.90
8684;DHT22;4379;59.744;18.206;2023-08-24T02:20:37;13.50;99.90
8684;DHT22;4379;59.744;18.206;2023-08-24T02:23:05;13.50;99.90
8684;DHT22;4379;59.744;18.206;2023-08-24T02:25:33;13.60;99.90
8684;DHT22;4379;59.744;18.206;2023-08-24T02:28:00;13.60;99.90
8684;DHT22;4379;59.744;18.206;2023-08-24T02:30:27;13.50;99.90
8684;DHT22;4379;59.744;18.206;2023-08-24T02:32:55;13.50;99.90
8684;DHT22;4379;59.744;18.206;2023-08-24T02:35:23;13.60;99.90
8684;DHT22;4379;59.744;18.206;2023-08-24T02:37:50;13.60;99.90
8684;DHT22;4379;59.744;18.206;2023-08-24T02:40:18;13.60;99.90
8684;DHT22;4379;59.744;18.206;2023-08-24T02:42:45;13.50;99.90
8684;DHT22;4379;59.744;18.206;2023-08-24T02:45:13;13.50;99.90
8684;DHT22;4379;59.744;18.206;2023-08-24T02:47:40;13.50;99.90
8684;DHT22;4379;59.744;18.206;2023-08-24T02:50:08;13.50;99.90
8684;DHT22;4379;59.744;18.206;2023-08-24T02:52:35;13.50;99.90
8684;DHT22;4379;59.744;18.206;2023-08-24T02:55:03;13.50;99.90
8684;DHT22;4379;59.744;18.206;2023-08-24T02:57:31;13.50;99.90
8684;DHT22;4379;59.744;18.206;2023-08-24T02:59:58;13.50;99.90
8684;DHT22;4379;59.744;18.206;2023-08-24T03:02:26;13.60;99.90
8684;DHT22;4379;59.744;18.206;2023-08-24T03:04:53;13.50;99.90
8684;DHT22;4379;59.744;18.206;2023-08-24T03:07:22;13.50;99.90
8684;DHT22;4379;59.744;18.206;2023-08-24T03:09:49;13.50;99.90
8684;DHT22;4379;59.744;18.206;2023-08-24T03:12:17;13.50;99.90
8684;DHT22;4379;59.744;18.206;2023-08-24T03:14:44;13.50;99.90
8684;DHT22;4379;59.744;18.206;2023-08-24T03:17:12;13.50;99.90
8684;DHT22;4379;59.744;18.206;2023-08-24T03:19:39;13.50;99.90
8684;DHT22;4379;59.744;18.206;2023-08-24T03:22:07;13.50;99.90
8684;DHT22;4379;59.744;18.206;2023-08-24T03:24:34;13.60;99.90
8684;DHT22;4379;59.744;18.206;2023-08-24T03:27:02;13.60;99.90
8684;DHT22;4379;59.744;18.206;2023-08-24T03:29:29;13.60;99.90
8684;DHT22;4379;59.744;18.206;2023-08-24T03:31:56;13.60;99.90
8684;DHT22;4379;59.744;18.206;2023-08-24T03:34:24;13.60;99.90
8684;DHT22;4379;59.744;18.206;2023-08-24T03:36:52;13.70;99.90
8684;DHT22;4379;59.744;18.206;2023-08-24T03:39:19;13.70;99.90
8684;DHT22;4379;59.744;18.206;2023-08-24T03:41:47;13.70;99.90
8684;DHT22;4379;59.744;18.206;2023-08-24T03:44:15;13.70;99.90
8684;DHT22;4379;59.744;18.206;2023-08-24T03:46:42;13.80;99.90
8684;DHT22;4379;59.744;18.206;2023-08-24T03:49:09;13.80;99.90
8684;DHT22;4379;59.744;18.206;2023-08-24T03:51:37;13.80;99.90
8684;DHT22;4379;59.744;18.206;2023-08-24T03:54:05;13.80;99.90
8684;DHT22;4379;59.744;18.206;2023-08-24T03:56:32;13.70;99.90
8684;DHT22;4379;59.744;18.206;2023-08-24T03:59:00;13.70;99.90
8684;DHT22;4379;59.744;18.206;2023-08-24T04:01:27;13.70;99.90
8684;DHT22;4379;59.744;18.206;2023-08-24T04:03:55;13.70;99.90
8684;DHT22;4379;59.744;18.206;2023-08-24T04:06:24;13.80;99.90
8684;DHT22;4379;59.744;18.206;2023-08-24T04:08:52;13.80;99.90
8684;DHT22;4379;59.744;18.206;2023-08-24T04:11:20;13.80;99.90
8684;DHT22;4379;59.744;18.206;2023-08-24T04:13:47;13.90;99.90
8684;DHT22;4379;59.744;18.206;2023-08-24T04:16:15;13.90;99.90
8684;DHT22;4379;59.744;18.206;2023-08-24T04:18:43;14.00;99.90
8684;DHT22;4379;59.744;18.206;2023-08-24T04:21:10;14.10;99.90
8684;DHT22;4379;59.744;18.206;2023-08-24T04:23:38;14.10;99.90
8684;DHT22;4379;59.744;18.206;2023-08-24T04:26:06;14.20;99.90
8684;DHT22;4379;59.744;18.206;2023-08-24T04:28:33;14.40;99.90
8684;DHT22;4379;59.744;18.206;2023-08-24T04:31:01;14.50;99.90
8684;DHT22;4379;59.744;18.206;2023-08-24T04:33:30;14.70;99.90
8684;DHT22;4379;59.744;18.206;2023-08-24T04:35:58;14.70;99.90
8684;DHT22;4379;59.744;18.206;2023-08-24T04:38:25;14.90;99.90
8684;DHT22;4379;59.744;18.206;2023-08-24T04:40:55;14.90;99.90
8684;DHT22;4379;59.744;18.206;2023-08-24T04:43:24;15.00;99.90
8684;DHT22;4379;59.744;18.206;2023-08-24T04:45:54;15.10;99.90
8684;DHT22;4379;59.744;18.206;2023-08-24T04:48:23;15.10;99.90
8684;DHT22;4379;59.744;18.206;2023-08-24T04:50:50;15.20;99.90
8684;DHT22;4379;59.744;18.206;2023-08-24T04:53:20;15.10;99.90
8684;DHT22;4379;59.744;18.206;2023-08-24T04:55:47;15.20;99.90
8684;DHT22;4379;59.744;18.206;2023-08-24T04:58:14;15.40;99.90
8684;DHT22;4379;59.744;18.206;2023-08-24T05:00:42;15.40;99.90
8684;DHT22;4379;59.744;18.206;2023-08-24T05:03:10;15.60;99.90
8684;DHT22;4379;59.744;18.206;2023-08-24T05:05:37;15.90;99.90
8684;DHT22;4379;59.744;18.206;2023-08-24T05:08:06;16.00;99.90
8684;DHT22;4379;59.744;18.206;2023-08-24T05:10:39;16.00;99.90
8684;DHT22;4379;59.744;18.206;2023-08-24T05:13:07;16.10;99.90
8684;DHT22;4379;59.744;18.206;2023-08-24T05:15:34;16.30;99.90
8684;DHT22;4379;59.744;18.206;2023-08-24T05:18:01;16.40;99.90
8684;DHT22;4379;59.744;18.206;2023-08-24T05:20:29;16.50;99.90
8684;DHT22;4379;59.744;18.206;2023-08-24T05:22:57;16.80;99.90
8684;DHT22;4379;59.744;18.206;2023-08-24T05:25:24;17.10;99.90
8684;DHT22;4379;59.744;18.206;2023-08-24T05:27:52;17.50;99.90
8684;DHT22;4379;59.744;18.206;2023-08-24T05:30:19;18.10;99.90
8684;DHT22;4379;59.744;18.206;2023-08-24T05:32:50;18.50;99.90
8684;DHT22;4379;59.744;18.206;2023-08-24T05:35:18;18.90;99.90
8684;DHT22;4379;59.744;18.206;2023-08-24T05:37:45;18.00;99.90
8684;DHT22;4379;59.744;18.206;2023-08-24T05:40:13;17.80;99.90
8684;DHT22;4379;59.744;18.206;2023-08-24T05:42:40;17.60;99.90
8684;DHT22;4379;59.744;18.206;2023-08-24T05:45:08;17.80;99.90
8684;DHT22;4379;59.744;18.206;2023-08-24T05:47:36;17.70;99.90
8684;DHT22;4379;59.744;18.206;2023-08-24T05:50:03;17.40;99.90
8684;DHT22;4379;59.744;18.206;2023-08-24T05:52:31;17.40;99.90
8684;DHT22;4379;59.744;18.206;2023-08-24T05:54:59;17.30;99.90
8684;DHT22;4379;59.744;18.206;2023-08-24T05:57:26;17.30;99.90
8684;DHT22;4379;59.744;18.206;2023-08-24T05:59:53;17.60;99.90
8684;DHT22;4379;59.744;18.206;2023-08-24T06:02:21;17.60;99.90
8684;DHT22;4379;59.744;18.206;2023-08-24T06:04:49;17.40;99.90
8684;DHT22;4379;59.744;18.206;2023-08-24T06:07:17;17.60;99.90
8684;DHT22;4379;59.744;18.206;2023-08-24T06:09:45;17.40;99.90
8684;DHT22;4379;59.744;18.206;2023-08-24T06:12:12;17.50;99.90
8684;DHT22;4379;59.744;18.206;2023-08-24T06:14:40;17.30;99.90
8684;DHT22;4379;59.744;18.206;2023-08-24T06:17:07;17.30;99.90
8684;DHT22;4379;59.744;18.206;2023-08-24T06:19:34;17.30;99.90
8684;DHT22;4379;59.744;18.206;2023-08-24T06:22:02;17.30;99.90
8684;DHT22;4379;59.744;18.206;2023-08-24T06:24:29;17.00;99.90
8684;DHT22;4379;59.744;18.206;2023-08-24T06:26:57;16.90;99.90
8684;DHT22;4379;59.744;18.206;2023-08-24T06:29:25;16.90;99.90
8684;DHT22;4379;59.744;18.206;2023-08-24T06:31:52;17.00;99.90
8684;DHT22;4379;59.744;18.206;2023-08-24T06:34:20;17.00;99.90
8684;DHT22;4379;59.744;18.206;2023-08-24T06:36:47;16.90;99.90
8684;DHT22;4379;59.744;18.206;2023-08-24T06:39:14;16.80;99.90
8684;DHT22;4379;59.744;18.206;2023-08-24T06:41:42;16.80;99.90
8684;DHT22;4379;59.744;18.206;2023-08-24T06:44:09;16.80;99.90
8684;DHT22;4379;59.744;18.206;2023-08-24T06:46:37;16.70;99.90
8684;DHT22;4379;59.744;18.206;2023-08-24T06:49:04;16.60;99.90
8684;DHT22;4379;59.744;18.206;2023-08-24T06:51:31;16.80;99.90
8684;DHT22;4379;59.744;18.206;2023-08-24T06:53:59;16.80;99.90
8684;DHT22;4379;59.744;18.206;2023-08-24T06:56:26;16.80;99.90
8684;DHT22;4379;59.744;18.206;2023-08-24T06:58:54;16.90;99.90
8684;DHT22;4379;59.744;18.206;2023-08-24T07:01:22;16.90;99.90
8684;DHT22;4379;59.744;18.206;2023-08-24T07:03:49;17.00;99.90
8684;DHT22;4379;59.744;18.206;2023-08-24T07:06:17;17.00;99.90
8684;DHT22;4379;59.744;18.206;2023-08-24T07:08:44;17.10;99.90
8684;DHT22;4379;59.744;18.206;2023-08-24T07:11:11;17.10;99.90
8684;DHT22;4379;59.744;18.206;2023-08-24T07:13:41;17.40;99.90
8684;DHT22;4379;59.744;18.206;2023-08-24T07:16:08;17.30;99.90
8684;DHT22;4379;59.744;18.206;2023-08-24T07:18:36;17.30;99.90
8684;DHT22;4379;59.744;18.206;2023-08-24T07:21:03;17.20;99.90
8684;DHT22;4379;59.744;18.206;2023-08-24T07:23:31;17.10;99.90
8684;DHT22;4379;59.744;18.206;2023-08-24T07:25:58;17.20;99.90
8684;DHT22;4379;59.744;18.206;2023-08-24T07:28:26;17.40;99.90
8684;DHT22;4379;59.744;18.206;2023-08-24T07:30:53;17.70;99.90
8684;DHT22;4379;59.744;18.206;2023-08-24T07:33:23;18.00;99.90
8684;DHT22;4379;59.744;18.206;2023-08-24T07:35:52;18.10;99.90
8684;DHT22;4379;59.744;18.206;2023-08-24T07:38:19;18.30;99.90
8684;DHT22;4379;59.744;18.206;2023-08-24T07:40:47;18.40;99.90
8684;DHT22;4379;59.744;18.206;2023-08-24T07:43:14;18.40;99.90
8684;DHT22;4379;59.744;18.206;2023-08-24T07:45:42;18.20;99.90
8684;DHT22;4379;59.744;18.206;2023-08-24T07:48:09;18.20;99.90
8684;DHT22;4379;59.744;18.206;2023-08-24T07:50:37;18.00;99.90
8684;DHT22;4379;59.744;18.206;2023-08-24T07:53:04;17.80;99.90
8684;DHT22;4379;59.744;18.206;2023-08-24T07:55:32;18.00;99.90
8684;DHT22;4379;59.744;18.206;2023-08-24T07:57:59;18.10;99.90
8684;DHT22;4379;59.744;18.206;2023-08-24T08:00:26;18.10;99.90
8684;DHT22;4379;59.744;18.206;2023-08-24T08:02:54;17.90;99.90
8684;DHT22;4379;59.744;18.206;2023-08-24T08:05:22;17.70;99.90
8684;DHT22;4379;59.744;18.206;2023-08-24T08:07:49;17.80;99.90
8684;DHT22;4379;59.744;18.206;2023-08-24T08:10:18;17.90;99.90
8684;DHT22;4379;59.744;18.206;2023-08-24T08:12:47;18.00;99.90
8684;DHT22;4379;59.744;18.206;2023-08-24T08:15:14;18.30;99.90
8684;DHT22;4379;59.744;18.206;2023-08-24T08:17:41;18.60;99.90
8684;DHT22;4379;59.744;18.206;2023-08-24T08:20:10;18.60;99.90
8684;DHT22;4379;59.744;18.206;2023-08-24T08:22:38;18.60;99.90
8684;DHT22;4379;59.744;18.206;2023-08-24T08:25:06;18.60;99.90
8684;DHT22;4379;59.744;18.206;2023-08-24T08:27:34;18.70;99.90
8684;DHT22;4379;59.744;18.206;2023-08-24T08:30:02;18.90;99.90
8684;DHT22;4379;59.744;18.206;2023-08-24T08:32:32;18.80;99.90
8684;DHT22;4379;59.744;18.206;2023-08-24T08:34:59;19.00;99.90
8684;DHT22;4379;59.744;18.206;2023-08-24T08:37:30;19.00;99.90
8684;DHT22;4379;59.744;18.206;2023-08-24T08:39:57;18.60;99.90
8684;DHT22;4379;59.744;18.206;2023-08-24T08:42:25;18.30;99.90
8684;DHT22;4379;59.744;18.206;2023-08-24T08:44:53;18.50;99.90
8684;DHT22;4379;59.744;18.206;2023-08-24T08:47:22;18.40;99.90
8684;DHT22;4379;59.744;18.206;2023-08-24T08:49:50;18.70;99.90
8684;DHT22;4379;59.744;18.206;2023-08-24T08:52:19;18.80;99.90
8684;DHT22;4379;59.744;18.206;2023-08-24T08:54:46;18.80;99.90
8684;DHT22;4379;59.744;18.206;2023-08-24T08:57:15;18.60;99.90
8684;DHT22;4379;59.744;18.206;2023-08-24T08:59:45;18.60;99.90
8684;DHT22;4379;59.744;18.206;2023-08-24T09:02:14;18.60;99.90
8684;DHT22;4379;59.744;18.206;2023-08-24T09:04:44;19.10;99.90
8684;DHT22;4379;59.744;18.206;2023-08-24T09:07:15;19.40;99.90
8684;DHT22;4379;59.744;18.206;2023-08-24T09:09:43;19.70;99.90
8684;DHT22;4379;59.744;18.206;2023-08-24T09:12:11;20.10;99.90
8684;DHT22;4379;59.744;18.206;2023-08-24T09:14:38;20.20;99.90
8684;DHT22;4379;59.744;18.206;2023-08-24T09:17:07;20.10;99.90
8684;DHT22;4379;59.744;18.206;2023-08-24T09:19:35;19.80;99.90
8684;DHT22;4379;59.744;18.206;2023-08-24T09:22:03;19.90;99.90
8684;DHT22;4379;59.744;18.206;2023-08-24T09:24:35;20.30;99.90
8684;DHT22;4379;59.744;18.206;2023-08-24T09:27:15;20.40;99.90
8684;DHT22;4379;59.744;18.206;2023-08-24T09:29:48;21.00;99.90
8684;DHT22;4379;59.744;18.206;2023-08-24T09:32:22;21.00;99.90
8684;DHT22;4379;59.744;18.206;2023-08-24T09:34:50;21.50;99.90
8684;DHT22;4379;59.744;18.206;2023-08-24T09:37:18;21.70;99.90
8684;DHT22;4379;59.744;18.206;2023-08-24T09:39:47;21.70;99.90
8684;DHT22;4379;59.744;18.206;2023-08-24T09:42:14;21.30;99.90
8684;DHT22;4379;59.744;18.206;2023-08-24T09:44:44;21.30;99.90
8684;DHT22;4379;59.744;18.206;2023-08-24T09:47:14;21.30;99.90
8684;DHT22;4379;59.744;18.206;2023-08-24T09:49:42;21.70;99.90
8684;DHT22;4379;59.744;18.206;2023-08-24T09:52:09;22.10;99.90
8684;DHT22;4379;59.744;18.206;2023-08-24T09:54:38;22.00;99.90
8684;DHT22;4379;59.744;18.206;2023-08-24T09:57:08;22.30;99.90
8684;DHT22;4379;59.744;18.206;2023-08-24T09:59:38;21.90;99.90
8684;DHT22;4379;59.744;18.206;2023-08-24T10:02:14;22.20;99.90
8684;DHT22;4379;59.744;18.206;2023-08-24T10:04:44;22.20;99.90
8684;DHT22;4379;59.744;18.206;2023-08-24T10:07:13;22.80;99.90
8684;DHT22;4379;59.744;18.206;2023-08-24T10:12:11;21.30;99.90
8684;DHT22;4379;59.744;18.206;2023-08-24T10:14:56;22.00;99.90
8684;DHT22;4379;59.744;18.206;2023-08-24T10:17:26;22.70;99.90
8684;DHT22;4379;59.744;18.206;2023-08-24T10:19:54;22.60;99.90
8684;DHT22;4379;59.744;18.206;2023-08-24T10:22:23;23.30;99.90
8684;DHT22;4379;59.744;18.206;2023-08-24T10:24:51;23.90;99.90
8684;DHT22;4379;59.744;18.206;2023-08-24T10:27:23;23.90;99.90
8684;DHT22;4379;59.744;18.206;2023-08-24T10:29:51;24.30;99.90
8684;DHT22;4379;59.744;18.206;2023-08-24T10:32:20;25.00;99.90
8684;DHT22;4379;59.744;18.206;2023-08-24T10:34:48;24.10;99.90
8684;DHT22;4379;59.744;18.206;2023-08-24T10:37:16;24.40;99.90
8684;DHT22;4379;59.744;18.206;2023-08-24T10:39:45;24.40;99.90
8684;DHT22;4379;59.744;18.206;2023-08-24T10:42:13;24.50;99.90
8684;DHT22;4379;59.744;18.206;2023-08-24T10:44:45;23.60;99.90
8684;DHT22;4379;59.744;18.206;2023-08-24T10:47:14;23.20;99.90
8684;DHT22;4379;59.744;18.206;2023-08-24T10:49:42;22.70;99.90
8684;DHT22;4379;59.744;18.206;2023-08-24T10:52:20;22.40;99.90
8684;DHT22;4379;59.744;18.206;2023-08-24T10:54:50;21.20;99.90
8684;DHT22;4379;59.744;18.206;2023-08-24T10:57:25;20.50;99.90
8684;DHT22;4379;59.744;18.206;2023-08-24T11:00:10;19.90;99.90
8684;DHT22;4379;59.744;18.206;2023-08-24T11:02:49;18.80;99.90
8684;DHT22;4379;59.744;18.206;2023-08-24T11:05:21;18.90;99.90
8684;DHT22;4379;59.744;18.206;2023-08-24T11:10:23;18.60;99.90
8684;DHT22;4379;59.744;18.206;2023-08-24T11:15:47;18.70;99.90
8684;DHT22;4379;59.744;18.206;2023-08-24T11:18:24;18.90;99.90
8684;DHT22;4379;59.744;18.206;2023-08-24T11:21:04;18.90;99.90
8684;DHT22;4379;59.744;18.206;2023-08-24T11:23:31;18.80;99.90
8684;DHT22;4379;59.744;18.206;2023-08-24T11:26:00;19.10;99.90
8684;DHT22;4379;59.744;18.206;2023-08-24T11:28:29;19.30;99.90
8684;DHT22;4379;59.744;18.206;2023-08-24T11:30:58;19.70;99.90
8684;DHT22;4379;59.744;18.206;2023-08-24T11:33:34;20.10;99.90
8684;DHT22;4379;59.744;18.206;2023-08-24T11:36:05;20.10;99.90
8684;DHT22;4379;59.744;18.206;2023-08-24T11:38:39;20.10;99.90
8684;DHT22;4379;59.744;18.206;2023-08-24T11:41:25;20.70;99.90
8684;DHT22;4379;59.744;18.206;2023-08-24T11:44:00;20.80;99.90
8684;DHT22;4379;59.744;18.206;2023-08-24T11:46:44;20.70;99.90
8684;DHT22;4379;59.744;18.206;2023-08-24T11:49:12;21.10;99.90
8684;DHT22;4379;59.744;18.206;2023-08-24T11:51:39;21.00;99.90
8684;DHT22;4379;59.744;18.206;2023-08-24T11:54:09;20.40;99.90
8684;DHT22;4379;59.744;18.206;2023-08-24T11:56:42;20.80;99.90
8684;DHT22;4379;59.744;18.206;2023-08-24T11:59:13;21.30;99.90
8684;DHT22;4379;59.744;18.206;2023-08-24T12:01:41;21.30;99.90
8684;DHT22;4379;59.744;18.206;2023-08-24T12:04:09;21.50;99.90
8684;DHT22;4379;59.744;18.206;2023-08-24T12:06:37;22.20;99.90
8684;DHT22;4379;59.744;18.206;2023-08-24T12:09:07;22.10;99.90
8684;DHT22;4379;59.744;18.206;2023-08-24T12:11:36;22.60;99.90
8684;DHT22;4379;59.744;18.206;2023-08-24T12:14:03;22.40;99.90
8684;DHT22;4379;59.744;18.206;2023-08-24T12:16:32;22.40;99.90
8684;DHT22;4379;59.744;18.206;2023-08-24T12:19:01;21.80;99.90
8684;DHT22;4379;59.744;18.206;2023-08-24T12:21:31;21.60;99.90
8684;DHT22;4379;59.744;18.206;2023-08-24T12:24:03;21.00;99.90
8684;DHT22;4379;59.744;18.206;2023-08-24T12:26:34;20.70;99.90
8684;DHT22;4379;59.744;18.206;2023-08-24T12:29:08;20.50;99.90
8684;DHT22;4379;59.744;18.206;2023-08-24T12:31:36;20.70;99.90
8684;DHT22;4379;59.744;18.206;2023-08-24T12:34:05;20.60;99.90
8684;DHT22;4379;59.744;18.206;2023-08-24T12:36:36;20.50;99.90
8684;DHT22;4379;59.744;18.206;2023-08-24T12:39:04;20.50;99.90
8684;DHT22;4379;59.744;18.206;2023-08-24T12:41:33;20.40;99.90
8684;DHT22;4379;59.744;18.206;2023-08-24T12:44:00;20.90;99.90
8684;DHT22;4379;59.744;18.206;2023-08-24T12:46:35;21.10;99.90
8684;DHT22;4379;59.744;18.206;2023-08-24T12:49:03;21.20;99.90
8684;DHT22;4379;59.744;18.206;2023-08-24T12:51:31;21.10;99.90
8684;DHT22;4379;59.744;18.206;2023-08-24T12:53:58;21.00;99.90
8684;DHT22;4379;59.744;18.206;2023-08-24T12:56:26;20.70;99.90
8684;DHT22;4379;59.744;18.206;2023-08-24T12:58:53;20.30;99.90
8684;DHT22;4379;59.744;18.206;2023-08-24T13:01:21;20.40;99.90
8684;DHT22;4379;59.744;18.206;2023-08-24T13:03:48;20.90;99.90
8684;DHT22;4379;59.744;18.206;2023-08-24T13:06:15;21.10;99.90
8684;DHT22;4379;59.744;18.206;2023-08-24T13:08:48;21.40;99.90
8684;DHT22;4379;59.744;18.206;2023-08-24T13:11:16;21.30;99.90
8684;DHT22;4379;59.744;18.206;2023-08-24T13:13:44;21.20;99.90
8684;DHT22;4379;59.744;18.206;2023-08-24T13:16:13;21.30;99.90
8684;DHT22;4379;59.744;18.206;2023-08-24T13:18:42;21.10;99.90
8684;DHT22;4379;59.744;18.206;2023-08-24T13:21:09;20.90;99.90
8684;DHT22;4379;59.744;18.206;2023-08-24T13:23:37;20.50;99.90
8684;DHT22;4379;59.744;18.206;2023-08-24T13:26:04;20.40;99.90
8684;DHT22;4379;59.744;18.206;2023-08-24T13:28:32;20.00;99.90
8684;DHT22;4379;59.744;18.206;2023-08-24T13:30:59;19.60;99.90
8684;DHT22;4379;59.744;18.206;2023-08-24T13:33:26;19.20;99.90
8684;DHT22;4379;59.744;18.206;2023-08-24T13:35:54;19.00;99.90
8684;DHT22;4379;59.744;18.206;2023-08-24T13:38:21;18.70;99.90
8684;DHT22;4379;59.744;18.206;2023-08-24T13:40:48;18.50;99.90
8684;DHT22;4379;59.744;18.206;2023-08-24T13:43:17;18.20;99.90
8684;DHT22;4379;59.744;18.206;2023-08-24T13:45:44;18.00;99.90
8684;DHT22;4379;59.744;18.206;2023-08-24T13:48:11;18.00;99.90
8684;DHT22;4379;59.744;18.206;2023-08-24T13:50:41;18.10;99.90
8684;DHT22;4379;59.744;18.206;2023-08-24T13:53:08;18.10;99.90
8684;DHT22;4379;59.744;18.206;2023-08-24T13:55:40;18.10;99.90
8684;DHT22;4379;59.744;18.206;2023-08-24T13:58:07;18.00;99.90
8684;DHT22;4379;59.744;18.206;2023-08-24T14:00:35;18.10;99.90
8684;DHT22;4379;59.744;18.206;2023-08-24T14:03:03;18.10;99.90
8684;DHT22;4379;59.744;18.206;2023-08-24T14:05:30;18.10;99.90
8684;DHT22;4379;59.744;18.206;2023-08-24T14:07:58;18.10;99.90
8684;DHT22;4379;59.744;18.206;2023-08-24T14:10:25;17.90;99.90
8684;DHT22;4379;59.744;18.206;2023-08-24T14:12:53;17.60;99.90
8684;DHT22;4379;59.744;18.206;2023-08-24T14:15:20;17.40;99.90
8684;DHT22;4379;59.744;18.206;2023-08-24T14:17:48;17.60;99.90
8684;DHT22;4379;59.744;18.206;2023-08-24T14:20:15;17.60;99.90
8684;DHT22;4379;59.744;18.206;2023-08-24T14:22:43;17.70;99.90
8684;DHT22;4379;59.744;18.206;2023-08-24T14:25:12;17.70;99.90
8684;DHT22;4379;59.744;18.206;2023-08-24T14:27:39;17.70;99.90
8684;DHT22;4379;59.744;18.206;2023-08-24T14:30:16;17.70;99.90
8684;DHT22;4379;59.744;18.206;2023-08-24T14:32:44;17.80;99.90
8684;DHT22;4379;59.744;18.206;2023-08-24T14:35:12;17.70;99.90
8684;DHT22;4379;59.744;18.206;2023-08-24T14:37:39;17.80;99.90
8684;DHT22;4379;59.744;18.206;2023-08-24T14:40:08;17.90;99.90
8684;DHT22;4379;59.744;18.206;2023-08-24T14:42:35;18.10;99.90
8684;DHT22;4379;59.744;18.206;2023-08-24T14:45:03;18.20;99.90
8684;DHT22;4379;59.744;18.206;2023-08-24T14:47:30;18.30;99.90
8684;DHT22;4379;59.744;18.206;2023-08-24T14:49:57;18.50;99.90
8684;DHT22;4379;59.744;18.206;2023-08-24T14:52:25;18.60;99.90
8684;DHT22;4379;59.744;18.206;2023-08-24T14:54:52;18.80;99.90
8684;DHT22;4379;59.744;18.206;2023-08-24T14:57:19;18.80;99.90
8684;DHT22;4379;59.744;18.206;2023-08-24T14:59:46;18.80;99.90
8684;DHT22;4379;59.744;18.206;2023-08-24T15:02:14;19.00;99.90
8684;DHT22;4379;59.744;18.206;2023-08-24T15:04:41;19.00;99.90
8684;DHT22;4379;59.744;18.206;2023-08-24T15:07:08;18.80;99.90
8684;DHT22;4379;59.744;18.206;2023-08-24T15:09:38;18.90;99.90
8684;DHT22;4379;59.744;18.206;2023-08-24T15:12:06;18.90;99.90
8684;DHT22;4379;59.744;18.206;2023-08-24T15:14:33;18.80;99.90
8684;DHT22;4379;59.744;18.206;2023-08-24T15:17:01;18.80;99.90
8684;DHT22;4379;59.744;18.206;2023-08-24T15:19:28;18.90;99.90
8684;DHT22;4379;59.744;18.206;2023-08-24T15:21:56;19.00;99.90
8684;DHT22;4379;59.744;18.206;2023-08-24T15:24:23;18.90;99.90
8684;DHT22;4379;59.744;18.206;2023-08-24T15:26:51;18.90;99.90
8684;DHT22;4379;59.744;18.206;2023-08-24T15:29:18;19.00;99.90
8684;DHT22;4379;59.744;18.206;2023-08-24T15:31:46;19.20;99.90
8684;DHT22;4379;59.744;18.206;2023-08-24T15:34:13;19.10;99.90
8684;DHT22;4379;59.744;18.206;2023-08-24T15:36:40;19.10;99.90
8684;DHT22;4379;59.744;18.206;2023-08-24T15:39:09;18.80;99.90
8684;DHT22;4379;59.744;18.206;2023-08-24T15:41:36;18.40;99.90
8684;DHT22;4379;59.744;18.206;2023-08-24T15:44:04;18.50;99.90
8684;DHT22;4379;59.744;18.206;2023-08-24T15:46:31;18.40;99.90
8684;DHT22;4379;59.744;18.206;2023-08-24T15:49:00;18.40;99.90
8684;DHT22;4379;59.744;18.206;2023-08-24T15:51:29;18.40;99.90
8684;DHT22;4379;59.744;18.206;2023-08-24T15:53:56;18.50;99.90
8684;DHT22;4379;59.744;18.206;2023-08-24T15:56:23;18.40;99.90
8684;DHT22;4379;59.744;18.206;2023-08-24T15:58:50;18.40;99.90
8684;DHT22;4379;59.744;18.206;2023-08-24T16:01:18;18.50;99.90
8684;DHT22;4379;59.744;18.206;2023-08-24T16:03:45;18.50;99.90
8684;DHT22;4379;59.744;18.206;2023-08-24T16:06:13;18.40;99.90
8684;DHT22;4379;59.744;18.206;2023-08-24T16:08:40;18.40;99.90